createdAt,value
2019-04-27T00:02:01.376Z,94991.56
2019-04-27T00:04:35.314Z,94995.59
2019-04-27T00:07:24.138Z,94995.73
2019-04-27T00:09:55.427Z,94993.30
2019-04-27T00:12:27.377Z,94992.47
2019-04-27T00:14:56.975Z,94993.77
2019-04-27T00:17:49.449Z,94997.50
2019-04-27T00:20:21.619Z,94990.46
2019-04-27T00:23:01.060Z,94986.19
2019-04-27T00:25:30.739Z,94981.55
2019-04-27T00:28:00.321Z,94979.39
2019-04-27T00:30:29.955Z,94983.13
2019-04-27T00:32:59.458Z,94983.33
2019-04-27T00:35:30.978Z,95000.00
2019-04-27T00:38:07.927Z,94995.63
2019-04-27T00:40:41.556Z,94989.95
2019-04-27T00:43:11.059Z,94991.45
2019-04-27T00:45:40.734Z,95000.50
2019-04-27T00:48:10.437Z,94997.11
2019-04-27T00:50:40.079Z,95002.33
2019-04-27T00:53:09.658Z,94999.75
2019-04-27T00:55:40.941Z,94993.73
2019-04-27T00:58:14.901Z,94998.47
2019-04-27T01:00:55.284Z,94992.33
2019-04-27T01:03:35.694Z,94988.39
2019-04-27T01:06:05.875Z,94988.99
2019-04-27T01:08:35.439Z,94991.23
2019-04-27T01:11:05.148Z,94982.19
2019-04-27T01:13:35.083Z,94988.11
2019-04-27T01:16:04.736Z,94984.32
2019-04-27T01:18:34.272Z,94980.05
2019-04-27T01:21:03.840Z,94976.79
2019-04-27T01:23:33.416Z,94977.85
2019-04-27T01:26:13.494Z,94968.05
2019-04-27T01:28:50.777Z,94975.92
2019-04-27T01:31:21.700Z,94972.69
2019-04-27T01:33:51.210Z,94969.17
2019-04-27T01:36:20.721Z,94965.44
2019-04-27T01:38:50.305Z,94964.34
2019-04-27T01:41:19.877Z,94964.50
2019-04-27T01:43:49.481Z,94963.48
2019-04-27T01:46:19.611Z,94954.95
2019-04-27T01:48:49.484Z,94959.78
2019-04-27T01:51:21.100Z,94961.97
2019-04-27T01:53:50.303Z,94967.00
2019-04-27T01:56:20.136Z,94955.72
2019-04-27T01:58:50.457Z,94953.66
2019-04-27T02:01:31.004Z,94951.86
2019-04-27T02:04:14.414Z,94961.53
2019-04-27T02:06:45.636Z,94955.83
2019-04-27T02:09:18.769Z,94963.66
2019-04-27T02:11:49.021Z,94955.77
2019-04-27T02:14:19.576Z,94956.50
2019-04-27T02:16:49.420Z,94959.58
2019-04-27T02:19:19.487Z,94962.95
2019-04-27T02:21:51.461Z,94962.28
2019-04-27T02:24:20.386Z,94951.42
2019-04-27T02:26:49.884Z,94951.86
2019-04-27T02:29:24.137Z,94951.08
2019-04-27T02:32:11.212Z,94951.17
2019-04-27T02:34:43.453Z,94957.90
2019-04-27T02:37:13.040Z,94953.50
2019-04-27T02:39:42.676Z,94957.02
2019-04-27T02:42:12.340Z,94959.23
2019-04-27T02:44:42.180Z,94943.77
2019-04-27T02:47:11.768Z,94943.00
2019-04-27T02:49:41.290Z,94940.72
2019-04-27T02:52:16.401Z,94939.86
2019-04-27T02:54:45.975Z,94939.63
2019-04-27T02:57:15.556Z,94936.84
2019-04-27T02:59:45.137Z,94934.86
2019-04-27T03:02:32.370Z,94942.20
2019-04-27T03:05:01.861Z,94942.20
2019-04-27T03:07:31.466Z,94943.59
2019-04-27T03:10:02.250Z,94942.50
2019-04-27T03:12:34.178Z,94942.47
2019-04-27T03:15:14.129Z,94931.52
2019-04-27T03:18:01.383Z,94936.25
2019-04-27T03:20:50.175Z,94936.41
2019-04-27T03:23:19.931Z,94933.61
2019-04-27T03:25:51.315Z,94928.73
2019-04-27T03:28:20.890Z,94929.52
2019-04-27T03:30:52.137Z,94930.81
2019-04-27T03:33:22.824Z,94920.75
2019-04-27T03:35:53.250Z,94920.25
2019-04-27T03:38:23.129Z,94916.05
2019-04-27T03:40:53.143Z,94912.31
2019-04-27T03:43:24.468Z,94919.99
2019-04-27T03:45:54.128Z,94913.00
2019-04-27T03:48:23.712Z,94911.15
2019-04-27T03:50:59.501Z,94909.27
2019-04-27T03:53:45.948Z,94914.36
2019-04-27T03:56:22.905Z,94919.73
2019-04-27T03:59:06.117Z,94913.89
2019-04-27T04:01:35.673Z,94910.22
2019-04-27T04:04:05.843Z,94914.69
2019-04-27T04:06:35.456Z,94917.69
2019-04-27T04:09:10.197Z,94908.44
2019-04-27T04:11:49.711Z,94916.14
2019-04-27T04:14:23.702Z,94907.58
2019-04-27T04:17:02.283Z,94910.22
2019-04-27T04:19:31.611Z,94894.30
2019-04-27T04:22:00.614Z,94901.25
2019-04-27T04:24:31.763Z,94901.84
2019-04-27T04:27:01.669Z,94899.39
2019-04-27T04:29:31.468Z,94895.70
2019-04-27T04:32:01.304Z,94891.81
2019-04-27T04:34:40.060Z,94893.42
2019-04-27T04:37:09.755Z,94883.59
2019-04-27T04:39:44.258Z,94888.82
2019-04-27T04:42:22.674Z,94887.28
2019-04-27T04:45:03.433Z,94887.10
2019-04-27T04:47:34.819Z,94880.05
2019-04-27T04:50:14.054Z,94877.20
2019-04-27T04:52:39.591Z,94879.05
2019-04-27T04:55:10.106Z,94880.84
2019-04-27T04:57:40.215Z,94876.25
2019-04-27T05:00:10.402Z,94870.41
2019-04-27T05:02:40.169Z,94869.17
2019-04-27T05:05:09.750Z,94866.98
2019-04-27T05:07:39.390Z,94866.84
2019-04-27T05:10:09.270Z,94858.78
2019-04-27T05:12:39.901Z,94848.23
2019-04-27T05:15:09.534Z,94855.13
2019-04-27T05:17:39.901Z,94853.39
2019-04-27T05:20:29.532Z,94837.20
2019-04-27T05:22:59.490Z,94839.90
2019-04-27T05:25:29.295Z,94835.23
2019-04-27T05:27:59.654Z,94836.68
2019-04-27T05:30:29.434Z,94842.52
2019-04-27T05:32:59.102Z,94849.45
2019-04-27T05:35:29.769Z,94840.99
2019-04-27T05:38:06.989Z,94835.34
2019-04-27T05:40:32.012Z,94834.96
2019-04-27T05:43:09.692Z,94837.65
2019-04-27T05:45:53.172Z,94834.02
2019-04-27T05:48:30.642Z,94831.08
2019-04-27T05:51:01.984Z,94836.89
2019-04-27T05:53:31.900Z,94836.22
2019-04-27T05:56:01.461Z,94839.55
2019-04-27T05:58:31.115Z,94827.69
2019-04-27T06:01:02.415Z,94823.36
2019-04-27T06:03:31.927Z,94816.58
2019-04-27T06:06:01.808Z,94820.23
2019-04-27T06:08:31.624Z,94811.47
2019-04-27T06:11:01.205Z,94812.42
2019-04-27T06:13:31.080Z,94802.67
2019-04-27T06:16:00.675Z,94797.77
2019-04-27T06:18:31.541Z,94801.30
2019-04-27T06:21:02.382Z,94792.84
2019-04-27T06:23:31.982Z,94788.13
2019-04-27T06:26:01.968Z,94789.69
2019-04-27T06:28:31.587Z,94785.02
2019-04-27T06:31:01.012Z,94781.59
2019-04-27T06:33:34.218Z,94793.31
2019-04-27T06:36:01.930Z,94792.75
2019-04-27T06:38:31.643Z,94784.92
2019-04-27T06:41:01.403Z,94789.14
2019-04-27T06:43:31.200Z,94779.50
2019-04-27T06:46:00.699Z,94785.05
2019-04-27T06:48:30.370Z,94777.09
2019-04-27T06:51:03.611Z,94784.66
2019-04-27T06:53:31.168Z,94784.66
2019-04-27T06:56:01.803Z,94780.76
2019-04-27T06:58:31.604Z,94780.52
2019-04-27T07:01:01.174Z,94771.45
2019-04-27T07:03:30.827Z,94776.66
2019-04-27T07:06:00.257Z,94763.29
2019-04-27T07:08:30.848Z,94760.16
2019-04-27T07:11:00.563Z,94763.56
2019-04-27T07:13:30.151Z,94762.79
2019-04-27T07:15:59.777Z,94763.02
2019-04-27T07:18:29.273Z,94763.81
2019-04-27T07:20:59.012Z,94751.28
2019-04-27T07:23:29.291Z,94771.40
2019-04-27T07:25:59.856Z,94775.83
2019-04-27T07:28:29.742Z,94766.72
2019-04-27T07:30:59.395Z,94763.08
2019-04-27T07:33:29.667Z,94756.27
2019-04-27T07:35:59.184Z,94753.94
2019-04-27T07:38:29.414Z,94747.13
2019-04-27T07:40:59.248Z,94752.08
2019-04-27T07:43:30.321Z,94740.30
2019-04-27T07:46:00.161Z,94746.26
2019-04-27T07:48:29.583Z,94739.70
2019-04-27T07:50:59.146Z,94747.77
2019-04-27T07:53:29.190Z,94731.20
2019-04-27T07:55:59.262Z,94732.20
2019-04-27T07:58:29.607Z,94725.39
2019-04-27T08:00:59.583Z,94720.27
2019-04-27T08:03:30.836Z,94718.63
2019-04-27T08:06:00.621Z,94712.30
2019-04-27T08:08:30.123Z,94719.39
2019-04-27T08:10:59.842Z,94715.91
2019-04-27T08:13:29.509Z,94704.80
2019-04-27T08:15:59.119Z,94718.49
2019-04-27T08:18:29.903Z,94716.61
2019-04-27T08:21:00.750Z,94703.91
2019-04-27T08:23:30.320Z,94708.05
2019-04-27T08:25:59.998Z,94706.47
2019-04-27T08:28:31.212Z,94695.27
2019-04-27T08:31:02.348Z,94695.05
2019-04-27T08:33:32.027Z,94684.10
2019-04-27T08:36:01.600Z,94688.18
2019-04-27T08:38:31.172Z,94685.20
2019-04-27T08:41:00.725Z,94677.34
2019-04-27T08:43:30.227Z,94683.30
2019-04-27T08:46:00.365Z,94667.69
2019-04-27T08:48:34.713Z,94679.96
2019-04-27T08:51:02.478Z,94683.64
2019-04-27T08:53:32.072Z,94674.66
2019-04-27T08:56:01.658Z,94672.87
2019-04-27T08:58:31.324Z,94664.71
2019-04-27T09:01:03.707Z,94652.46
2019-04-27T09:03:33.202Z,94641.01
2019-04-27T09:06:04.624Z,94636.52
2019-04-27T09:08:41.259Z,94625.48
2019-04-27T09:11:12.209Z,94624.81
2019-04-27T09:13:43.345Z,94613.61
2019-04-27T09:16:20.239Z,94616.33
2019-04-27T09:18:51.101Z,94606.78
2019-04-27T09:21:20.627Z,94605.11
2019-04-27T09:23:50.073Z,94598.63
2019-04-27T09:26:19.495Z,94590.72
2019-04-27T09:28:49.333Z,94583.47
2019-04-27T09:31:19.662Z,94577.95
2019-04-27T09:33:49.354Z,94570.66
2019-04-27T09:36:18.893Z,94566.80
2019-04-27T09:38:48.338Z,94565.27
2019-04-27T09:41:17.873Z,94556.56
2019-04-27T09:43:47.305Z,94545.70
2019-04-27T09:46:16.836Z,94538.20
2019-04-27T09:48:46.680Z,94531.70
2019-04-27T09:51:16.347Z,94528.33
2019-04-27T09:53:45.962Z,94517.54
2019-04-27T09:56:16.461Z,94522.92
2019-04-27T09:58:47.129Z,94521.69
2019-04-27T10:01:18.100Z,94516.03
2019-04-27T10:03:49.054Z,94516.06
2019-04-27T10:06:18.590Z,94506.33
2019-04-27T10:08:48.076Z,94508.25
2019-04-27T10:11:17.675Z,94503.63
2019-04-27T10:13:47.386Z,94502.40
2019-04-27T10:16:17.228Z,94483.77
2019-04-27T10:18:46.930Z,94473.25
2019-04-27T10:21:16.440Z,94461.27
2019-04-27T10:23:47.036Z,94458.08
2019-04-27T10:26:16.651Z,94468.91
2019-04-27T10:28:46.186Z,94467.78
2019-04-27T10:31:15.763Z,94470.70
2019-04-27T10:33:45.841Z,94464.81
2019-04-27T10:36:17.280Z,94461.97
2019-04-27T10:38:46.779Z,94455.88
2019-04-27T10:41:16.641Z,94453.30
2019-04-27T10:43:46.280Z,94451.98
2019-04-27T10:46:15.774Z,94446.31
2019-04-27T10:48:45.734Z,94439.46
2019-04-27T10:51:16.116Z,94441.73
2019-04-27T10:53:45.765Z,94434.69
2019-04-27T10:56:15.232Z,94424.02
2019-04-27T10:58:45.699Z,94426.77
2019-04-27T11:01:15.657Z,94415.10
2019-04-27T11:04:05.942Z,94406.34
2019-04-27T11:06:53.603Z,94407.12
2019-04-27T11:09:23.267Z,94399.42
2019-04-27T11:11:52.867Z,94392.17
2019-04-27T11:14:22.549Z,94380.77
2019-04-27T11:16:52.047Z,94384.56
2019-04-27T11:19:21.650Z,94383.46
2019-04-27T11:21:51.211Z,94373.94
2019-04-27T11:24:20.716Z,94374.18
2019-04-27T11:26:50.146Z,94371.84
2019-04-27T11:29:19.713Z,94383.71
2019-04-27T11:31:49.302Z,94374.13
2019-04-27T11:34:20.338Z,94366.33
2019-04-27T11:36:51.692Z,94353.91
2019-04-27T11:39:21.336Z,94361.42
2019-04-27T11:41:50.821Z,94370.11
2019-04-27T11:44:20.259Z,94378.73
2019-04-27T11:46:49.747Z,94381.95
2019-04-27T11:49:19.426Z,94381.80
2019-04-27T11:51:48.990Z,94377.25
2019-04-27T11:54:18.554Z,94378.31
2019-04-27T11:56:55.990Z,94391.68
2019-04-27T11:59:27.019Z,94383.78
2019-04-27T12:01:56.575Z,94386.27
2019-04-27T12:04:26.364Z,94386.38
2019-04-27T12:09:26.109Z,94393.75
2019-04-27T12:12:06.759Z,94414.48
2019-04-27T12:14:26.918Z,94450.17
2019-04-27T12:16:56.557Z,94468.56
2019-04-27T12:19:27.410Z,94495.12
2019-04-27T12:21:56.983Z,94500.89
2019-04-27T12:24:26.824Z,94453.46
2019-04-27T12:27:07.164Z,94439.56
2019-04-27T12:29:55.844Z,94470.86
2019-04-27T12:32:26.523Z,94496.76
2019-04-27T12:34:56.539Z,94495.97
2019-04-27T12:37:26.873Z,94492.05
2019-04-27T12:39:57.645Z,94487.53
2019-04-27T12:42:27.194Z,94510.63
2019-04-27T12:44:56.858Z,94498.78
2019-04-27T12:47:26.415Z,94500.81
2019-04-27T12:49:57.682Z,94501.19
2019-04-27T12:52:27.394Z,94508.53
2019-04-27T12:55:16.774Z,94525.09
2019-04-27T12:57:53.736Z,94507.70
2019-04-27T13:00:33.917Z,94497.37
2019-04-27T13:03:03.505Z,94498.33
2019-04-27T13:05:33.129Z,94521.30
2019-04-27T13:08:02.701Z,94513.00
2019-04-27T13:10:32.301Z,94491.34
2019-04-27T13:13:01.905Z,94492.70
2019-04-27T13:15:31.512Z,94498.43
2019-04-27T13:18:01.145Z,94488.92
2019-04-27T13:20:31.276Z,94489.12
2019-04-27T13:23:01.817Z,94469.40
2019-04-27T13:25:31.639Z,94480.56
2019-04-27T13:28:01.850Z,94474.91
2019-04-27T13:30:31.573Z,94483.74
2019-04-27T13:33:01.074Z,94473.42
2019-04-27T13:35:30.676Z,94476.10
2019-04-27T13:38:00.330Z,94461.26
2019-04-27T13:40:31.646Z,94478.48
2019-04-27T13:43:02.925Z,94466.48
2019-04-27T13:45:49.687Z,94459.20
2019-04-27T13:48:39.259Z,94453.44
2019-04-27T13:51:10.416Z,94463.35
2019-04-27T13:53:41.447Z,94470.14
2019-04-27T13:56:17.581Z,94475.11
2019-04-27T13:58:47.508Z,94476.41
2019-04-27T14:01:17.011Z,94494.94
2019-04-27T14:03:46.539Z,94505.61
2019-04-27T14:06:19.924Z,94506.12
2019-04-27T14:08:49.538Z,94463.56
2019-04-27T14:11:19.119Z,94514.73
2019-04-27T14:13:48.685Z,94518.38
2019-04-27T14:16:18.930Z,94519.19
2019-04-27T14:18:48.661Z,94501.45
2019-04-27T14:21:18.290Z,94477.67
2019-04-27T14:23:48.483Z,94500.09
2019-04-27T14:26:18.491Z,94499.45
2019-04-27T14:28:49.888Z,94521.78
2019-04-27T14:31:20.874Z,94524.67
2019-04-27T14:33:52.064Z,94538.45
2019-04-27T14:36:21.765Z,94555.24
2019-04-27T14:38:51.528Z,94559.63
2019-04-27T14:41:21.241Z,94607.03
2019-04-27T14:44:07.530Z,94652.13
2019-04-27T14:46:28.317Z,94690.85
2019-04-27T14:48:59.716Z,94718.25
2019-04-27T14:51:29.284Z,94713.23
2019-04-27T14:54:02.065Z,94745.80
2019-04-27T14:56:31.558Z,94764.19
2019-04-27T14:59:01.120Z,94768.88
2019-04-27T15:01:30.821Z,94774.02
2019-04-27T15:04:00.388Z,94785.55
2019-04-27T15:06:30.254Z,94788.92
2019-04-27T15:09:03.057Z,94803.84
2019-04-27T15:11:34.683Z,94801.43
2019-04-27T15:14:06.106Z,94806.03
2019-04-27T15:16:42.654Z,94804.34
2019-04-27T15:19:21.043Z,94790.44
2019-04-27T15:21:58.537Z,94792.13
2019-04-27T15:24:27.652Z,94793.38
2019-04-27T15:27:02.059Z,94774.09
2019-04-27T15:29:31.854Z,94772.44
2019-04-27T15:32:04.345Z,94769.13
2019-04-27T15:34:42.720Z,94753.33
2019-04-27T15:37:20.568Z,94778.33
2019-04-27T15:40:09.998Z,94786.39
2019-04-27T15:42:41.541Z,94776.24
2019-04-27T15:45:15.977Z,94792.68
2019-04-27T15:47:47.712Z,94779.80
2019-04-27T15:50:15.893Z,94785.52
2019-04-27T15:52:45.356Z,94785.08
2019-04-27T15:55:32.346Z,94779.48
2019-04-27T15:57:52.953Z,94779.45
2019-04-27T16:00:28.589Z,94774.67
2019-04-27T16:02:57.751Z,94764.38
2019-04-27T16:05:28.591Z,94753.78
2019-04-27T16:08:15.266Z,94749.45
2019-04-27T16:10:40.383Z,94695.03
2019-04-27T16:13:14.942Z,94741.84
2019-04-27T16:18:38.989Z,94725.98
2019-04-27T16:21:10.762Z,94722.48
2019-04-27T16:23:43.057Z,94719.60
2019-04-27T16:26:14.858Z,94697.56
2019-04-27T16:28:43.089Z,94688.59
2019-04-27T16:31:13.835Z,94656.84
2019-04-27T16:33:43.425Z,94634.73
2019-04-27T16:36:12.994Z,94657.56
2019-04-27T16:38:44.296Z,94676.08
2019-04-27T16:41:13.997Z,94695.77
2019-04-27T16:43:45.646Z,94703.23
2019-04-27T16:46:14.880Z,94700.77
2019-04-27T16:48:44.518Z,94687.28
2019-04-27T16:51:14.112Z,94679.84
2019-04-27T16:53:43.796Z,94675.97
2019-04-27T16:56:16.135Z,94671.19
2019-04-27T16:58:48.937Z,94670.33
2019-04-27T17:01:18.743Z,94660.15
2019-04-27T17:03:48.631Z,94654.18
2019-04-27T17:06:19.106Z,94647.59
2019-04-27T17:08:49.827Z,94643.55
2019-04-27T17:11:19.855Z,94654.31
2019-04-27T17:13:58.995Z,94645.45
2019-04-27T17:16:39.525Z,94633.75
2019-04-27T17:19:20.015Z,94636.31
2019-04-27T17:21:49.642Z,94632.20
2019-04-27T17:24:43.924Z,94641.63
2019-04-27T17:27:11.592Z,94630.61
2019-04-27T17:29:42.272Z,94641.78
2019-04-27T17:32:13.575Z,94647.08
2019-04-27T17:34:43.175Z,94639.08
2019-04-27T17:37:12.606Z,94632.73
2019-04-27T17:39:42.241Z,94636.41
2019-04-27T17:42:11.756Z,94642.50
2019-04-27T17:44:42.795Z,94654.73
2019-04-27T17:47:12.498Z,94646.69
2019-04-27T17:49:42.162Z,94648.35
2019-04-27T17:52:13.161Z,94659.03
2019-04-27T17:54:47.374Z,94661.03
2019-04-27T17:57:15.589Z,94673.00
2019-04-27T17:59:45.342Z,94669.54
2019-04-27T18:02:15.078Z,94684.06
2019-04-27T18:04:44.646Z,94688.84
2019-04-27T18:07:14.209Z,94710.47
2019-04-27T18:09:44.850Z,94711.21
2019-04-27T18:12:18.357Z,94713.77
2019-04-27T18:14:47.825Z,94718.81
2019-04-27T18:17:19.689Z,94729.24
2019-04-27T18:19:50.292Z,94728.70
2019-04-27T18:22:20.189Z,94737.55
2019-04-27T18:24:51.500Z,94738.00
2019-04-27T18:27:22.858Z,94741.84
2019-04-27T18:29:54.250Z,94741.34
2019-04-27T18:32:27.657Z,94748.45
2019-04-27T18:34:55.417Z,94752.49
2019-04-27T18:37:25.150Z,94744.81
2019-04-27T18:39:55.112Z,94752.57
2019-04-27T18:42:28.074Z,94757.41
2019-04-27T18:44:55.852Z,94769.26
2019-04-27T18:47:25.587Z,94759.20
2019-04-27T18:50:07.509Z,94764.82
2019-04-27T18:52:40.773Z,94767.41
2019-04-27T18:55:11.440Z,94758.02
2019-04-27T18:57:46.067Z,94764.24
2019-04-27T19:00:16.507Z,94759.45
2019-04-27T19:02:50.031Z,94770.67
2019-04-27T19:05:18.824Z,94768.51
2019-04-27T19:07:48.871Z,94752.92
2019-04-27T19:10:22.281Z,94746.53
2019-04-27T19:12:51.040Z,94749.48
2019-04-27T19:15:20.825Z,94750.64
2019-04-27T19:17:50.307Z,94740.67
2019-04-27T19:20:20.025Z,94747.30
2019-04-27T19:22:49.697Z,94749.29
2019-04-27T19:25:20.973Z,94755.89
2019-04-27T19:27:58.292Z,94743.05
2019-04-27T19:30:42.116Z,94742.92
2019-04-27T19:33:11.821Z,94747.14
2019-04-27T19:35:42.938Z,94748.70
2019-04-27T19:38:12.504Z,94766.94
2019-04-27T19:40:41.967Z,94764.94
2019-04-27T19:43:11.530Z,94761.72
2019-04-27T19:45:41.102Z,94765.01
2019-04-27T19:48:10.690Z,94771.12
2019-04-27T19:50:40.083Z,94769.67
2019-04-27T19:53:10.892Z,94770.67
2019-04-27T19:55:40.690Z,94764.51
2019-04-27T19:58:10.383Z,94772.37
2019-04-27T20:00:44.720Z,94764.80
2019-04-27T20:03:15.983Z,94761.63
2019-04-27T20:05:45.508Z,94762.54
2019-04-27T20:08:16.633Z,94770.23
2019-04-27T20:10:46.193Z,94759.42
2019-04-27T20:13:15.766Z,94760.98
2019-04-27T20:15:45.404Z,94764.84
2019-04-27T20:18:15.289Z,94771.39
2019-04-27T20:20:45.087Z,94765.58
2019-04-27T20:23:14.721Z,94757.34
2019-04-27T20:25:44.392Z,94750.53
2019-04-27T20:28:13.882Z,94752.45
2019-04-27T20:30:43.465Z,94755.73
2019-04-27T20:33:13.107Z,94755.44
2019-04-27T20:35:42.831Z,94743.34
2019-04-27T20:38:14.385Z,94751.56
2019-04-27T20:40:44.171Z,94742.42
2019-04-27T20:43:13.595Z,94742.73
2019-04-27T20:45:48.571Z,94741.17
2019-04-27T20:48:18.095Z,94745.73
2019-04-27T20:50:48.078Z,94737.58
2019-04-27T20:53:20.891Z,94739.18
2019-04-27T20:55:53.850Z,94731.30
2019-04-27T20:58:24.844Z,94730.83
2019-04-27T21:00:54.412Z,94730.47
2019-04-27T21:03:25.581Z,94725.31
2019-04-27T21:05:56.637Z,94711.84
2019-04-27T21:08:27.942Z,94714.13
2019-04-27T21:10:57.359Z,94711.81
2019-04-27T21:13:26.853Z,94719.98
2019-04-27T21:15:56.374Z,94725.98
2019-04-27T21:18:25.954Z,94721.61
2019-04-27T21:20:55.513Z,94721.42
2019-04-27T21:23:25.102Z,94726.73
2019-04-27T21:25:54.685Z,94722.52
2019-04-27T21:28:24.243Z,94722.70
2019-04-27T21:30:53.801Z,94719.23
2019-04-27T21:33:23.373Z,94716.11
2019-04-27T21:35:52.872Z,94713.82
2019-04-27T21:38:23.441Z,94718.89
2019-04-27T21:40:52.862Z,94714.77
2019-04-27T21:43:22.451Z,94727.86
2019-04-27T21:45:52.013Z,94719.89
2019-04-27T21:48:21.568Z,94715.72
2019-04-27T21:50:51.744Z,94710.64
2019-04-27T21:53:41.058Z,94713.82
2019-04-27T21:56:12.050Z,94711.92
2019-04-27T21:58:42.156Z,94718.44
2019-04-27T22:01:13.529Z,94720.51
2019-04-27T22:03:43.647Z,94708.95
2019-04-27T22:06:13.325Z,94707.31
2019-04-27T22:08:42.973Z,94710.03
2019-04-27T22:11:12.540Z,94712.56
2019-04-27T22:13:43.724Z,94714.62
2019-04-27T22:16:13.295Z,94711.77
2019-04-27T22:18:43.936Z,94716.34
2019-04-27T22:21:13.530Z,94709.89
2019-04-27T22:23:53.544Z,94715.39
2019-04-27T22:26:23.236Z,94720.86
2019-04-27T22:28:52.813Z,94714.88
2019-04-27T22:31:22.424Z,94706.02
2019-04-27T22:33:54.392Z,94719.41
2019-04-27T22:36:24.188Z,94714.09
2019-04-27T22:38:55.320Z,94723.58
2019-04-27T22:41:31.393Z,94714.22
2019-04-27T22:44:02.656Z,94716.97
2019-04-27T22:46:33.960Z,94712.20
2019-04-27T22:49:03.464Z,94711.52
2019-04-27T22:51:33.037Z,94713.66
2019-04-27T22:54:02.469Z,94700.07
2019-04-27T22:56:32.261Z,94700.92
2019-04-27T22:59:12.610Z,94698.91
2019-04-27T23:01:46.760Z,94703.67
2019-04-27T23:04:32.384Z,94699.11
2019-04-27T23:07:02.722Z,94686.08
2019-04-27T23:09:32.425Z,94691.17
2019-04-27T23:12:01.945Z,94688.80
2019-04-27T23:14:32.722Z,94682.71
2019-04-27T23:17:13.059Z,94684.75
2019-04-27T23:19:42.839Z,94685.74
2019-04-27T23:22:12.261Z,94692.62
2019-04-27T23:24:42.883Z,94685.79
2019-04-27T23:27:15.118Z,94684.50
2019-04-27T23:29:43.534Z,94688.75
2019-04-27T23:32:21.061Z,94680.86
2019-04-27T23:34:51.733Z,94687.67
2019-04-27T23:37:21.292Z,94694.91
2019-04-27T23:39:50.781Z,94700.41
2019-04-27T23:42:21.703Z,94694.02
2019-04-27T23:44:51.194Z,94706.48
2019-04-27T23:47:21.787Z,94666.07
2019-04-27T23:49:51.216Z,94710.69
2019-04-27T23:52:38.455Z,94707.05
2019-04-27T23:55:08.019Z,94701.92
2019-04-27T23:57:37.445Z,94714.19
